sensor_id;sensor_type;location;lat;lon;timestamp;P1;durP1;ratioP1;P2;durP2;ratioP2
11539;SDS011;5826;54.756;9.192;2023-07-13T00:01:13;3.72;;;2.17;;
11539;SDS011;5826;54.756;9.192;2023-07-13T00:03:39;3.13;;;2.10;;
11539;SDS011;5826;54.756;9.192;2023-07-13T00:06:06;3.47;;;2.30;;
11539;SDS011;5826;54.756;9.192;2023-07-13T00:08:32;2.75;;;2.20;;
11539;SDS011;5826;54.756;9.192;2023-07-13T00:10:58;2.78;;;1.70;;
11539;SDS011;5826;54.756;9.192;2023-07-13T00:13:27;3.40;;;1.80;;
11539;SDS011;5826;54.756;9.192;2023-07-13T00:15:54;3.17;;;1.88;;
11539;SDS011;5826;54.756;9.192;2023-07-13T00:18:21;3.15;;;2.00;;
11539;SDS011;5826;54.756;9.192;2023-07-13T00:20:47;2.85;;;1.75;;
11539;SDS011;5826;54.756;9.192;2023-07-13T00:23:14;2.53;;;1.98;;
11539;SDS011;5826;54.756;9.192;2023-07-13T00:25:42;2.55;;;1.83;;
11539;SDS011;5826;54.756;9.192;2023-07-13T00:28:07;3.75;;;2.20;;
11539;SDS011;5826;54.756;9.192;2023-07-13T00:30:33;3.17;;;2.45;;
11539;SDS011;5826;54.756;9.192;2023-07-13T00:32:58;3.65;;;1.98;;
11539;SDS011;5826;54.756;9.192;2023-07-13T00:35:26;2.78;;;1.85;;
11539;SDS011;5826;54.756;9.192;2023-07-13T00:37:51;5.65;;;2.15;;
11539;SDS011;5826;54.756;9.192;2023-07-13T00:40:18;3.90;;;1.80;;
11539;SDS011;5826;54.756;9.192;2023-07-13T00:42:43;2.90;;;1.88;;
11539;SDS011;5826;54.756;9.192;2023-07-13T00:47:40;3.40;;;2.10;;
11539;SDS011;5826;54.756;9.192;2023-07-13T00:50:06;3.85;;;2.30;;
11539;SDS011;5826;54.756;9.192;2023-07-13T00:52:34;3.90;;;2.25;;
11539;SDS011;5826;54.756;9.192;2023-07-13T00:55:02;3.53;;;2.10;;
11539;SDS011;5826;54.756;9.192;2023-07-13T00:57:28;2.60;;;2.10;;
11539;SDS011;5826;54.756;9.192;2023-07-13T00:59:55;4.18;;;2.15;;
11539;SDS011;5826;54.756;9.192;2023-07-13T01:02:24;4.07;;;2.50;;
11539;SDS011;5826;54.756;9.192;2023-07-13T01:04:50;4.55;;;2.50;;
11539;SDS011;5826;54.756;9.192;2023-07-13T01:07:16;5.38;;;2.95;;
11539;SDS011;5826;54.756;9.192;2023-07-13T01:09:43;4.38;;;2.22;;
11539;SDS011;5826;54.756;9.192;2023-07-13T01:12:10;4.93;;;2.20;;
11539;SDS011;5826;54.756;9.192;2023-07-13T01:14:36;4.20;;;2.10;;
11539;SDS011;5826;54.756;9.192;2023-07-13T01:17:01;4.03;;;2.25;;
11539;SDS011;5826;54.756;9.192;2023-07-13T01:19:44;4.88;;;2.53;;
11539;SDS011;5826;54.756;9.192;2023-07-13T01:22:11;3.97;;;2.15;;
11539;SDS011;5826;54.756;9.192;2023-07-13T01:24:40;2.05;;;1.80;;
11539;SDS011;5826;54.756;9.192;2023-07-13T01:27:08;3.05;;;2.05;;
11539;SDS011;5826;54.756;9.192;2023-07-13T01:29:36;2.13;;;1.75;;
11539;SDS011;5826;54.756;9.192;2023-07-13T01:32:07;2.22;;;1.80;;
11539;SDS011;5826;54.756;9.192;2023-07-13T01:34:34;5.28;;;2.50;;
11539;SDS011;5826;54.756;9.192;2023-07-13T01:37:00;5.10;;;2.58;;
11539;SDS011;5826;54.756;9.192;2023-07-13T01:39:25;4.60;;;2.10;;
11539;SDS011;5826;54.756;9.192;2023-07-13T01:41:51;3.20;;;1.90;;
11539;SDS011;5826;54.756;9.192;2023-07-13T01:44:16;4.75;;;2.53;;
11539;SDS011;5826;54.756;9.192;2023-07-13T01:46:42;3.92;;;2.33;;
11539;SDS011;5826;54.756;9.192;2023-07-13T01:49:07;4.90;;;2.13;;
11539;SDS011;5826;54.756;9.192;2023-07-13T01:51:33;3.95;;;2.20;;
11539;SDS011;5826;54.756;9.192;2023-07-13T01:53:58;4.60;;;1.90;;
11539;SDS011;5826;54.756;9.192;2023-07-13T01:56:24;4.93;;;2.47;;
11539;SDS011;5826;54.756;9.192;2023-07-13T01:58:49;5.68;;;2.78;;
11539;SDS011;5826;54.756;9.192;2023-07-13T02:01:16;4.90;;;2.13;;
11539;SDS011;5826;54.756;9.192;2023-07-13T02:03:42;3.75;;;2.13;;
11539;SDS011;5826;54.756;9.192;2023-07-13T02:06:07;3.03;;;1.70;;
11539;SDS011;5826;54.756;9.192;2023-07-13T02:08:33;4.68;;;2.33;;
11539;SDS011;5826;54.756;9.192;2023-07-13T02:10:59;4.38;;;2.10;;
11539;SDS011;5826;54.756;9.192;2023-07-13T02:13:24;4.43;;;2.10;;
11539;SDS011;5826;54.756;9.192;2023-07-13T02:15:50;5.13;;;2.25;;
11539;SDS011;5826;54.756;9.192;2023-07-13T02:18:16;2.22;;;1.77;;
11539;SDS011;5826;54.756;9.192;2023-07-13T02:20:42;3.70;;;2.13;;
11539;SDS011;5826;54.756;9.192;2023-07-13T02:23:08;3.33;;;2.28;;
11539;SDS011;5826;54.756;9.192;2023-07-13T02:25:34;3.20;;;1.92;;
11539;SDS011;5826;54.756;9.192;2023-07-13T02:27:59;4.38;;;2.10;;
11539;SDS011;5826;54.756;9.192;2023-07-13T02:30:25;4.38;;;2.20;;
11539;SDS011;5826;54.756;9.192;2023-07-13T02:32:51;2.88;;;1.83;;
11539;SDS011;5826;54.756;9.192;2023-07-13T02:35:16;3.13;;;1.67;;
11539;SDS011;5826;54.756;9.192;2023-07-13T02:37:42;3.25;;;1.95;;
11539;SDS011;5826;54.756;9.192;2023-07-13T02:40:07;2.65;;;1.80;;
11539;SDS011;5826;54.756;9.192;2023-07-13T02:42:34;4.30;;;2.30;;
11539;SDS011;5826;54.756;9.192;2023-07-13T02:45:00;4.45;;;2.28;;
11539;SDS011;5826;54.756;9.192;2023-07-13T02:47:25;4.97;;;2.42;;
11539;SDS011;5826;54.756;9.192;2023-07-13T02:49:51;3.60;;;2.00;;
11539;SDS011;5826;54.756;9.192;2023-07-13T02:52:17;3.15;;;2.00;;
11539;SDS011;5826;54.756;9.192;2023-07-13T02:54:43;4.57;;;1.90;;
11539;SDS011;5826;54.756;9.192;2023-07-13T02:57:08;3.05;;;1.60;;
11539;SDS011;5826;54.756;9.192;2023-07-13T02:59:34;5.40;;;3.03;;
11539;SDS011;5826;54.756;9.192;2023-07-13T03:02:00;2.60;;;1.70;;
11539;SDS011;5826;54.756;9.192;2023-07-13T03:04:27;3.05;;;1.90;;
11539;SDS011;5826;54.756;9.192;2023-07-13T03:06:52;3.28;;;1.60;;
11539;SDS011;5826;54.756;9.192;2023-07-13T03:09:18;1.85;;;1.73;;
11539;SDS011;5826;54.756;9.192;2023-07-13T03:11:43;2.25;;;1.70;;
11539;SDS011;5826;54.756;9.192;2023-07-13T03:14:09;2.38;;;1.52;;
11539;SDS011;5826;54.756;9.192;2023-07-13T03:16:34;2.97;;;1.63;;
11539;SDS011;5826;54.756;9.192;2023-07-13T03:19:00;2.20;;;1.63;;
11539;SDS011;5826;54.756;9.192;2023-07-13T03:21:25;1.95;;;1.50;;
11539;SDS011;5826;54.756;9.192;2023-07-13T03:23:51;2.75;;;1.65;;
11539;SDS011;5826;54.756;9.192;2023-07-13T03:26:18;1.92;;;1.55;;
11539;SDS011;5826;54.756;9.192;2023-07-13T03:28:45;3.00;;;1.70;;
11539;SDS011;5826;54.756;9.192;2023-07-13T03:31:12;1.92;;;1.60;;
11539;SDS011;5826;54.756;9.192;2023-07-13T03:33:40;3.55;;;1.60;;
11539;SDS011;5826;54.756;9.192;2023-07-13T03:36:07;2.35;;;1.70;;
11539;SDS011;5826;54.756;9.192;2023-07-13T03:38:35;2.90;;;1.55;;
11539;SDS011;5826;54.756;9.192;2023-07-13T03:41:01;1.83;;;1.63;;
11539;SDS011;5826;54.756;9.192;2023-07-13T03:43:26;4.03;;;2.00;;
11539;SDS011;5826;54.756;9.192;2023-07-13T03:45:52;3.47;;;1.80;;
11539;SDS011;5826;54.756;9.192;2023-07-13T03:48:18;4.80;;;3.20;;
11539;SDS011;5826;54.756;9.192;2023-07-13T03:50:43;3.75;;;2.20;;
11539;SDS011;5826;54.756;9.192;2023-07-13T03:53:09;2.92;;;2.00;;
11539;SDS011;5826;54.756;9.192;2023-07-13T03:55:34;2.10;;;1.63;;
11539;SDS011;5826;54.756;9.192;2023-07-13T04:01:06;2.00;;;1.30;;
11539;SDS011;5826;54.756;9.192;2023-07-13T04:03:33;1.85;;;1.25;;
11539;SDS011;5826;54.756;9.192;2023-07-13T04:06:00;1.17;;;1.08;;
11539;SDS011;5826;54.756;9.192;2023-07-13T04:08:28;2.05;;;1.05;;
11539;SDS011;5826;54.756;9.192;2023-07-13T04:10:55;2.50;;;1.13;;
11539;SDS011;5826;54.756;9.192;2023-07-13T04:13:21;1.17;;;0.82;;
11539;SDS011;5826;54.756;9.192;2023-07-13T04:15:47;1.20;;;1.00;;
11539;SDS011;5826;54.756;9.192;2023-07-13T04:18:13;1.52;;;0.93;;
11539;SDS011;5826;54.756;9.192;2023-07-13T04:20:38;1.25;;;0.90;;
11539;SDS011;5826;54.756;9.192;2023-07-13T04:23:04;2.03;;;0.98;;
11539;SDS011;5826;54.756;9.192;2023-07-13T04:25:30;1.15;;;0.98;;
11539;SDS011;5826;54.756;9.192;2023-07-13T04:27:55;2.13;;;1.00;;
11539;SDS011;5826;54.756;9.192;2023-07-13T04:30:21;1.30;;;0.90;;
11539;SDS011;5826;54.756;9.192;2023-07-13T04:32:47;1.40;;;1.00;;
11539;SDS011;5826;54.756;9.192;2023-07-13T04:35:13;3.65;;;1.30;;
11539;SDS011;5826;54.756;9.192;2023-07-13T04:37:39;5.57;;;1.60;;
11539;SDS011;5826;54.756;9.192;2023-07-13T04:40:05;3.60;;;1.30;;
11539;SDS011;5826;54.756;9.192;2023-07-13T04:42:31;2.63;;;1.13;;
11539;SDS011;5826;54.756;9.192;2023-07-13T04:44:59;2.75;;;0.90;;
11539;SDS011;5826;54.756;9.192;2023-07-13T04:47:24;2.58;;;1.10;;
11539;SDS011;5826;54.756;9.192;2023-07-13T04:49:50;1.67;;;0.90;;
11539;SDS011;5826;54.756;9.192;2023-07-13T04:52:15;1.20;;;0.90;;
11539;SDS011;5826;54.756;9.192;2023-07-13T04:54:41;1.92;;;1.00;;
11539;SDS011;5826;54.756;9.192;2023-07-13T04:57:07;1.70;;;1.10;;
11539;SDS011;5826;54.756;9.192;2023-07-13T04:59:33;1.67;;;1.10;;
11539;SDS011;5826;54.756;9.192;2023-07-13T05:01:59;2.42;;;1.10;;
11539;SDS011;5826;54.756;9.192;2023-07-13T05:04:24;1.67;;;1.17;;
11539;SDS011;5826;54.756;9.192;2023-07-13T05:06:50;1.83;;;1.23;;
11539;SDS011;5826;54.756;9.192;2023-07-13T05:09:15;2.85;;;1.20;;
11539;SDS011;5826;54.756;9.192;2023-07-13T05:11:42;3.28;;;1.60;;
11539;SDS011;5826;54.756;9.192;2023-07-13T05:14:08;3.75;;;1.50;;
11539;SDS011;5826;54.756;9.192;2023-07-13T05:16:34;1.95;;;1.33;;
11539;SDS011;5826;54.756;9.192;2023-07-13T05:19:00;3.08;;;1.50;;
11539;SDS011;5826;54.756;9.192;2023-07-13T05:21:26;1.95;;;1.10;;
11539;SDS011;5826;54.756;9.192;2023-07-13T05:23:52;2.35;;;1.40;;
11539;SDS011;5826;54.756;9.192;2023-07-13T05:26:17;2.30;;;1.35;;
11539;SDS011;5826;54.756;9.192;2023-07-13T05:28:43;6.57;;;1.77;;
11539;SDS011;5826;54.756;9.192;2023-07-13T05:31:09;2.85;;;1.63;;
11539;SDS011;5826;54.756;9.192;2023-07-13T05:33:35;2.75;;;1.30;;
11539;SDS011;5826;54.756;9.192;2023-07-13T05:36:00;2.00;;;1.27;;
11539;SDS011;5826;54.756;9.192;2023-07-13T05:38:26;1.63;;;1.05;;
11539;SDS011;5826;54.756;9.192;2023-07-13T05:40:53;2.15;;;1.30;;
11539;SDS011;5826;54.756;9.192;2023-07-13T05:43:20;2.63;;;1.30;;
11539;SDS011;5826;54.756;9.192;2023-07-13T05:45:47;2.28;;;1.20;;
11539;SDS011;5826;54.756;9.192;2023-07-13T05:48:13;2.78;;;1.23;;
11539;SDS011;5826;54.756;9.192;2023-07-13T05:50:39;1.80;;;1.20;;
11539;SDS011;5826;54.756;9.192;2023-07-13T05:53:05;1.58;;;1.10;;
11539;SDS011;5826;54.756;9.192;2023-07-13T05:55:31;2.33;;;1.40;;
11539;SDS011;5826;54.756;9.192;2023-07-13T05:57:56;1.65;;;1.05;;
11539;SDS011;5826;54.756;9.192;2023-07-13T06:00:23;1.83;;;1.15;;
11539;SDS011;5826;54.756;9.192;2023-07-13T06:02:49;1.60;;;1.20;;
11539;SDS011;5826;54.756;9.192;2023-07-13T06:05:15;1.90;;;1.35;;
11539;SDS011;5826;54.756;9.192;2023-07-13T06:07:41;2.00;;;1.25;;
11539;SDS011;5826;54.756;9.192;2023-07-13T06:10:07;1.42;;;1.05;;
11539;SDS011;5826;54.756;9.192;2023-07-13T06:12:33;1.48;;;1.10;;
11539;SDS011;5826;54.756;9.192;2023-07-13T06:14:58;2.42;;;1.23;;
11539;SDS011;5826;54.756;9.192;2023-07-13T06:17:23;1.75;;;0.90;;
11539;SDS011;5826;54.756;9.192;2023-07-13T06:19:49;1.85;;;1.10;;
11539;SDS011;5826;54.756;9.192;2023-07-13T06:22:14;3.95;;;0.90;;
11539;SDS011;5826;54.756;9.192;2023-07-13T06:24:40;1.55;;;0.95;;
11539;SDS011;5826;54.756;9.192;2023-07-13T06:27:05;2.38;;;1.00;;
11539;SDS011;5826;54.756;9.192;2023-07-13T06:29:31;1.52;;;0.95;;
11539;SDS011;5826;54.756;9.192;2023-07-13T06:31:56;1.98;;;1.20;;
11539;SDS011;5826;54.756;9.192;2023-07-13T06:34:22;2.50;;;1.10;;
11539;SDS011;5826;54.756;9.192;2023-07-13T06:36:48;1.10;;;0.82;;
11539;SDS011;5826;54.756;9.192;2023-07-13T06:39:13;1.55;;;0.90;;
11539;SDS011;5826;54.756;9.192;2023-07-13T06:41:39;1.83;;;1.05;;
11539;SDS011;5826;54.756;9.192;2023-07-13T06:44:04;1.85;;;1.10;;
11539;SDS011;5826;54.756;9.192;2023-07-13T06:46:31;1.27;;;0.90;;
11539;SDS011;5826;54.756;9.192;2023-07-13T06:48:56;2.05;;;1.15;;
11539;SDS011;5826;54.756;9.192;2023-07-13T06:51:22;0.95;;;0.80;;
11539;SDS011;5826;54.756;9.192;2023-07-13T06:53:47;2.25;;;1.23;;
11539;SDS011;5826;54.756;9.192;2023-07-13T06:56:14;2.63;;;1.20;;
11539;SDS011;5826;54.756;9.192;2023-07-13T06:58:40;2.65;;;1.08;;
11539;SDS011;5826;54.756;9.192;2023-07-13T07:01:06;1.40;;;1.00;;
11539;SDS011;5826;54.756;9.192;2023-07-13T07:03:31;1.42;;;0.80;;
11539;SDS011;5826;54.756;9.192;2023-07-13T07:06:01;1.63;;;1.00;;
11539;SDS011;5826;54.756;9.192;2023-07-13T07:08:44;2.30;;;1.10;;
11539;SDS011;5826;54.756;9.192;2023-07-13T07:11:13;3.42;;;1.20;;
11539;SDS011;5826;54.756;9.192;2023-07-13T07:13:41;2.50;;;1.10;;
11539;SDS011;5826;54.756;9.192;2023-07-13T07:16:06;2.40;;;1.30;;
11539;SDS011;5826;54.756;9.192;2023-07-13T07:18:34;4.80;;;1.50;;
11539;SDS011;5826;54.756;9.192;2023-07-13T07:20:59;3.33;;;1.35;;
11539;SDS011;5826;54.756;9.192;2023-07-13T07:23:25;2.70;;;1.30;;
11539;SDS011;5826;54.756;9.192;2023-07-13T07:25:51;2.58;;;1.30;;
11539;SDS011;5826;54.756;9.192;2023-07-13T07:28:17;3.83;;;1.27;;
11539;SDS011;5826;54.756;9.192;2023-07-13T07:30:46;4.60;;;1.40;;
11539;SDS011;5826;54.756;9.192;2023-07-13T07:33:12;4.38;;;1.65;;
11539;SDS011;5826;54.756;9.192;2023-07-13T07:35:38;3.28;;;1.40;;
11539;SDS011;5826;54.756;9.192;2023-07-13T07:38:04;3.75;;;1.60;;
11539;SDS011;5826;54.756;9.192;2023-07-13T07:40:30;4.32;;;1.77;;
11539;SDS011;5826;54.756;9.192;2023-07-13T07:42:56;5.95;;;1.88;;
11539;SDS011;5826;54.756;9.192;2023-07-13T07:45:21;3.53;;;1.80;;
11539;SDS011;5826;54.756;9.192;2023-07-13T07:47:47;3.85;;;1.90;;
11539;SDS011;5826;54.756;9.192;2023-07-13T07:50:13;3.00;;;1.50;;
11539;SDS011;5826;54.756;9.192;2023-07-13T07:52:38;2.85;;;1.50;;
11539;SDS011;5826;54.756;9.192;2023-07-13T07:55:04;3.53;;;1.40;;
11539;SDS011;5826;54.756;9.192;2023-07-13T07:57:31;3.65;;;1.40;;
11539;SDS011;5826;54.756;9.192;2023-07-13T07:59:57;3.22;;;1.38;;
11539;SDS011;5826;54.756;9.192;2023-07-13T08:02:24;4.13;;;1.50;;
11539;SDS011;5826;54.756;9.192;2023-07-13T08:04:50;2.42;;;1.50;;
11539;SDS011;5826;54.756;9.192;2023-07-13T08:07:16;2.83;;;1.50;;
11539;SDS011;5826;54.756;9.192;2023-07-13T08:09:41;3.22;;;1.90;;
11539;SDS011;5826;54.756;9.192;2023-07-13T08:12:07;5.38;;;1.75;;
11539;SDS011;5826;54.756;9.192;2023-07-13T08:14:33;6.47;;;1.77;;
11539;SDS011;5826;54.756;9.192;2023-07-13T08:16:58;5.95;;;1.77;;
11539;SDS011;5826;54.756;9.192;2023-07-13T08:19:24;3.40;;;1.75;;
11539;SDS011;5826;54.756;9.192;2023-07-13T08:21:49;3.25;;;1.58;;
11539;SDS011;5826;54.756;9.192;2023-07-13T08:24:15;3.55;;;1.50;;
11539;SDS011;5826;54.756;9.192;2023-07-13T08:26:43;4.63;;;1.50;;
11539;SDS011;5826;54.756;9.192;2023-07-13T08:29:09;5.50;;;1.80;;
11539;SDS011;5826;54.756;9.192;2023-07-13T08:31:34;4.43;;;1.70;;
11539;SDS011;5826;54.756;9.192;2023-07-13T08:34:00;3.40;;;1.30;;
11539;SDS011;5826;54.756;9.192;2023-07-13T08:36:25;2.53;;;1.10;;
11539;SDS011;5826;54.756;9.192;2023-07-13T08:38:52;3.33;;;1.40;;
11539;SDS011;5826;54.756;9.192;2023-07-13T08:41:17;3.35;;;1.40;;
11539;SDS011;5826;54.756;9.192;2023-07-13T08:43:47;3.13;;;1.48;;
11539;SDS011;5826;54.756;9.192;2023-07-13T08:46:26;4.10;;;1.45;;
11539;SDS011;5826;54.756;9.192;2023-07-13T08:49:06;2.28;;;1.30;;
11539;SDS011;5826;54.756;9.192;2023-07-13T08:51:38;3.22;;;1.30;;
11539;SDS011;5826;54.756;9.192;2023-07-13T08:54:24;3.53;;;1.70;;
11539;SDS011;5826;54.756;9.192;2023-07-13T08:56:54;3.88;;;1.33;;
11539;SDS011;5826;54.756;9.192;2023-07-13T08:59:22;4.15;;;1.48;;
11539;SDS011;5826;54.756;9.192;2023-07-13T09:04:59;3.67;;;1.45;;
11539;SDS011;5826;54.756;9.192;2023-07-13T09:15:24;1.90;;;1.27;;
11539;SDS011;5826;54.756;9.192;2023-07-13T09:18:13;3.17;;;1.40;;
11539;SDS011;5826;54.756;9.192;2023-07-13T09:20:50;3.92;;;1.40;;
11539;SDS011;5826;54.756;9.192;2023-07-13T09:23:21;2.53;;;1.23;;
11539;SDS011;5826;54.756;9.192;2023-07-13T09:25:50;2.25;;;1.10;;
11539;SDS011;5826;54.756;9.192;2023-07-13T09:28:22;2.38;;;1.10;;
11539;SDS011;5826;54.756;9.192;2023-07-13T09:30:56;1.70;;;1.00;;
11539;SDS011;5826;54.756;9.192;2023-07-13T09:33:28;2.20;;;0.95;;
11539;SDS011;5826;54.756;9.192;2023-07-13T09:35:56;2.22;;;1.15;;
11539;SDS011;5826;54.756;9.192;2023-07-13T09:38:23;2.58;;;1.00;;
11539;SDS011;5826;54.756;9.192;2023-07-13T09:46:43;3.15;;;1.20;;
11539;SDS011;5826;54.756;9.192;2023-07-13T09:49:16;3.15;;;1.10;;
11539;SDS011;5826;54.756;9.192;2023-07-13T09:51:43;3.72;;;1.40;;
11539;SDS011;5826;54.756;9.192;2023-07-13T09:54:19;4.18;;;1.42;;
11539;SDS011;5826;54.756;9.192;2023-07-13T09:56:45;3.67;;;1.20;;
11539;SDS011;5826;54.756;9.192;2023-07-13T09:59:21;3.42;;;1.42;;
11539;SDS011;5826;54.756;9.192;2023-07-13T10:01:49;4.63;;;1.73;;
11539;SDS011;5826;54.756;9.192;2023-07-13T10:04:17;3.95;;;1.60;;
11539;SDS011;5826;54.756;9.192;2023-07-13T10:06:44;4.25;;;1.55;;
11539;SDS011;5826;54.756;9.192;2023-07-13T10:09:13;4.80;;;1.50;;
11539;SDS011;5826;54.756;9.192;2023-07-13T10:11:41;3.90;;;1.50;;
11539;SDS011;5826;54.756;9.192;2023-07-13T10:14:16;2.25;;;1.27;;
11539;SDS011;5826;54.756;9.192;2023-07-13T10:16:45;4.03;;;1.63;;
11539;SDS011;5826;54.756;9.192;2023-07-13T10:19:17;4.03;;;1.48;;
11539;SDS011;5826;54.756;9.192;2023-07-13T10:24:25;5.57;;;1.50;;
11539;SDS011;5826;54.756;9.192;2023-07-13T10:29:42;4.40;;;1.50;;
11539;SDS011;5826;54.756;9.192;2023-07-13T10:32:13;4.65;;;1.60;;
11539;SDS011;5826;54.756;9.192;2023-07-13T10:34:40;5.57;;;1.63;;
11539;SDS011;5826;54.756;9.192;2023-07-13T10:37:14;3.05;;;1.30;;
11539;SDS011;5826;54.756;9.192;2023-07-13T10:39:45;4.05;;;1.48;;
11539;SDS011;5826;54.756;9.192;2023-07-13T10:42:11;3.03;;;1.50;;
11539;SDS011;5826;54.756;9.192;2023-07-13T10:44:53;3.50;;;1.63;;
11539;SDS011;5826;54.756;9.192;2023-07-13T10:47:18;2.75;;;1.38;;
11539;SDS011;5826;54.756;9.192;2023-07-13T10:49:44;3.38;;;1.40;;
11539;SDS011;5826;54.756;9.192;2023-07-13T10:55:05;4.85;;;1.60;;
11539;SDS011;5826;54.756;9.192;2023-07-13T10:58:14;4.63;;;1.40;;
11539;SDS011;5826;54.756;9.192;2023-07-13T11:03:14;4.53;;;1.40;;
11539;SDS011;5826;54.756;9.192;2023-07-13T11:05:42;4.30;;;1.65;;
11539;SDS011;5826;54.756;9.192;2023-07-13T11:10:55;3.03;;;1.38;;
11539;SDS011;5826;54.756;9.192;2023-07-13T11:16:12;3.05;;;1.60;;
11539;SDS011;5826;54.756;9.192;2023-07-13T11:21:30;3.80;;;1.42;;
11539;SDS011;5826;54.756;9.192;2023-07-13T11:24:04;5.55;;;1.65;;
11539;SDS011;5826;54.756;9.192;2023-07-13T11:29:24;4.18;;;1.50;;
11539;SDS011;5826;54.756;9.192;2023-07-13T11:31:59;4.13;;;1.70;;
11539;SDS011;5826;54.756;9.192;2023-07-13T11:34:28;5.70;;;1.52;;
11539;SDS011;5826;54.756;9.192;2023-07-13T11:36:59;5.60;;;1.73;;
11539;SDS011;5826;54.756;9.192;2023-07-13T11:39:34;4.18;;;1.67;;
11539;SDS011;5826;54.756;9.192;2023-07-13T11:42:05;3.10;;;1.50;;
11539;SDS011;5826;54.756;9.192;2023-07-13T11:44:41;3.13;;;1.50;;
11539;SDS011;5826;54.756;9.192;2023-07-13T11:47:09;3.38;;;1.20;;
11539;SDS011;5826;54.756;9.192;2023-07-13T11:49:41;3.58;;;1.30;;
11539;SDS011;5826;54.756;9.192;2023-07-13T11:52:12;1.40;;;1.17;;
11539;SDS011;5826;54.756;9.192;2023-07-13T11:54:48;2.33;;;1.23;;
11539;SDS011;5826;54.756;9.192;2023-07-13T11:59:58;2.53;;;1.38;;
11539;SDS011;5826;54.756;9.192;2023-07-13T12:02:28;5.10;;;1.83;;
11539;SDS011;5826;54.756;9.192;2023-07-13T12:04:56;3.60;;;1.50;;
11539;SDS011;5826;54.756;9.192;2023-07-13T12:07:23;2.80;;;1.30;;
11539;SDS011;5826;54.756;9.192;2023-07-13T12:09:49;4.30;;;1.52;;
11539;SDS011;5826;54.756;9.192;2023-07-13T12:12:19;3.65;;;1.67;;
11539;SDS011;5826;54.756;9.192;2023-07-13T12:14:53;3.17;;;1.50;;
11539;SDS011;5826;54.756;9.192;2023-07-13T12:17:21;3.35;;;1.45;;
11539;SDS011;5826;54.756;9.192;2023-07-13T12:19:48;4.25;;;1.35;;
11539;SDS011;5826;54.756;9.192;2023-07-13T12:22:16;2.67;;;1.60;;
11539;SDS011;5826;54.756;9.192;2023-07-13T12:24:43;4.28;;;1.30;;
11539;SDS011;5826;54.756;9.192;2023-07-13T12:27:16;4.20;;;1.50;;
11539;SDS011;5826;54.756;9.192;2023-07-13T12:29:49;2.08;;;1.00;;
11539;SDS011;5826;54.756;9.192;2023-07-13T12:32:38;2.78;;;1.20;;
11539;SDS011;5826;54.756;9.192;2023-07-13T12:35:14;2.95;;;1.00;;
11539;SDS011;5826;54.756;9.192;2023-07-13T12:37:42;1.95;;;1.10;;
11539;SDS011;5826;54.756;9.192;2023-07-13T12:40:13;1.15;;;0.80;;
11539;SDS011;5826;54.756;9.192;2023-07-13T12:42:43;1.70;;;1.00;;
11539;SDS011;5826;54.756;9.192;2023-07-13T12:45:20;2.22;;;0.98;;
11539;SDS011;5826;54.756;9.192;2023-07-13T12:47:49;2.25;;;0.88;;
11539;SDS011;5826;54.756;9.192;2023-07-13T12:50:19;2.80;;;1.10;;
11539;SDS011;5826;54.756;9.192;2023-07-13T12:52:51;1.60;;;0.93;;
11539;SDS011;5826;54.756;9.192;2023-07-13T12:55:19;2.13;;;0.82;;
11539;SDS011;5826;54.756;9.192;2023-07-13T12:58:04;2.05;;;1.10;;
11539;SDS011;5826;54.756;9.192;2023-07-13T13:00:32;0.93;;;0.70;;
11539;SDS011;5826;54.756;9.192;2023-07-13T13:03:02;1.48;;;0.73;;
11539;SDS011;5826;54.756;9.192;2023-07-13T13:05:30;1.75;;;0.77;;
11539;SDS011;5826;54.756;9.192;2023-07-13T13:07:57;2.20;;;0.80;;
11539;SDS011;5826;54.756;9.192;2023-07-13T13:10:23;0.80;;;0.60;;
11539;SDS011;5826;54.756;9.192;2023-07-13T13:12:50;1.08;;;0.68;;
11539;SDS011;5826;54.756;9.192;2023-07-13T13:15:15;1.67;;;0.82;;
11539;SDS011;5826;54.756;9.192;2023-07-13T13:17:41;0.88;;;0.65;;
11539;SDS011;5826;54.756;9.192;2023-07-13T13:22:44;1.35;;;0.85;;
11539;SDS011;5826;54.756;9.192;2023-07-13T13:25:13;1.30;;;0.70;;
11539;SDS011;5826;54.756;9.192;2023-07-13T13:27:43;1.65;;;0.73;;
11539;SDS011;5826;54.756;9.192;2023-07-13T13:30:10;3.50;;;0.95;;
11539;SDS011;5826;54.756;9.192;2023-07-13T13:32:38;1.67;;;0.95;;
11539;SDS011;5826;54.756;9.192;2023-07-13T13:35:04;4.72;;;1.10;;
11539;SDS011;5826;54.756;9.192;2023-07-13T13:37:31;2.63;;;1.02;;
11539;SDS011;5826;54.756;9.192;2023-07-13T13:39:57;2.20;;;1.10;;
11539;SDS011;5826;54.756;9.192;2023-07-13T13:42:22;3.30;;;1.00;;
11539;SDS011;5826;54.756;9.192;2023-07-13T13:44:49;1.52;;;0.77;;
11539;SDS011;5826;54.756;9.192;2023-07-13T13:47:36;2.40;;;0.70;;
11539;SDS011;5826;54.756;9.192;2023-07-13T13:50:04;1.85;;;0.82;;
11539;SDS011;5826;54.756;9.192;2023-07-13T13:52:39;2.80;;;1.10;;
11539;SDS011;5826;54.756;9.192;2023-07-13T13:55:12;2.13;;;0.80;;
11539;SDS011;5826;54.756;9.192;2023-07-13T13:57:44;1.38;;;0.70;;
11539;SDS011;5826;54.756;9.192;2023-07-13T14:00:10;3.35;;;1.05;;
11539;SDS011;5826;54.756;9.192;2023-07-13T14:02:39;1.42;;;0.70;;
11539;SDS011;5826;54.756;9.192;2023-07-13T14:05:13;2.35;;;1.23;;
11539;SDS011;5826;54.756;9.192;2023-07-13T14:07:40;1.77;;;0.90;;
11539;SDS011;5826;54.756;9.192;2023-07-13T14:10:11;1.80;;;0.70;;
11539;SDS011;5826;54.756;9.192;2023-07-13T14:12:39;3.28;;;1.20;;
11539;SDS011;5826;54.756;9.192;2023-07-13T14:15:08;2.30;;;0.90;;
11539;SDS011;5826;54.756;9.192;2023-07-13T14:17:49;1.33;;;0.90;;
11539;SDS011;5826;54.756;9.192;2023-07-13T14:20:15;2.42;;;1.00;;
11539;SDS011;5826;54.756;9.192;2023-07-13T14:22:42;2.80;;;1.10;;
11539;SDS011;5826;54.756;9.192;2023-07-13T14:25:11;2.35;;;1.20;;
11539;SDS011;5826;54.756;9.192;2023-07-13T14:27:37;3.15;;;1.20;;
11539;SDS011;5826;54.756;9.192;2023-07-13T14:30:05;3.92;;;1.00;;
11539;SDS011;5826;54.756;9.192;2023-07-13T14:32:48;2.95;;;1.25;;
11539;SDS011;5826;54.756;9.192;2023-07-13T14:35:15;3.08;;;1.23;;
11539;SDS011;5826;54.756;9.192;2023-07-13T14:37:42;3.00;;;0.95;;
11539;SDS011;5826;54.756;9.192;2023-07-13T14:40:16;3.22;;;1.20;;
11539;SDS011;5826;54.756;9.192;2023-07-13T14:42:48;2.42;;;1.20;;
11539;SDS011;5826;54.756;9.192;2023-07-13T14:45:14;2.30;;;1.10;;
11539;SDS011;5826;54.756;9.192;2023-07-13T14:47:41;1.80;;;1.10;;
11539;SDS011;5826;54.756;9.192;2023-07-13T14:50:12;2.70;;;0.90;;
11539;SDS011;5826;54.756;9.192;2023-07-13T14:52:42;3.55;;;1.00;;
11539;SDS011;5826;54.756;9.192;2023-07-13T14:55:12;1.65;;;1.10;;
11539;SDS011;5826;54.756;9.192;2023-07-13T14:57:39;2.28;;;1.00;;
11539;SDS011;5826;54.756;9.192;2023-07-13T15:00:07;1.50;;;0.90;;
11539;SDS011;5826;54.756;9.192;2023-07-13T15:02:40;1.90;;;0.90;;
11539;SDS011;5826;54.756;9.192;2023-07-13T15:05:13;1.58;;;0.90;;
11539;SDS011;5826;54.756;9.192;2023-07-13T15:07:40;2.58;;;1.15;;
11539;SDS011;5826;54.756;9.192;2023-07-13T15:10:16;1.90;;;1.08;;
11539;SDS011;5826;54.756;9.192;2023-07-13T15:12:44;3.05;;;1.20;;
11539;SDS011;5826;54.756;9.192;2023-07-13T15:15:09;5.35;;;1.20;;
11539;SDS011;5826;54.756;9.192;2023-07-13T15:17:39;4.63;;;1.20;;
11539;SDS011;5826;54.756;9.192;2023-07-13T15:20:17;2.58;;;1.25;;
11539;SDS011;5826;54.756;9.192;2023-07-13T15:22:46;2.45;;;1.10;;
11539;SDS011;5826;54.756;9.192;2023-07-13T15:25:20;2.45;;;1.10;;
11539;SDS011;5826;54.756;9.192;2023-07-13T15:27:48;2.10;;;1.33;;
11539;SDS011;5826;54.756;9.192;2023-07-13T15:30:14;2.75;;;1.38;;
11539;SDS011;5826;54.756;9.192;2023-07-13T15:32:43;2.20;;;1.15;;
11539;SDS011;5826;54.756;9.192;2023-07-13T15:35:13;3.13;;;1.13;;
11539;SDS011;5826;54.756;9.192;2023-07-13T15:37:44;2.95;;;1.20;;
11539;SDS011;5826;54.756;9.192;2023-07-13T15:40:10;2.72;;;1.25;;
11539;SDS011;5826;54.756;9.192;2023-07-13T15:42:38;4.07;;;1.23;;
11539;SDS011;5826;54.756;9.192;2023-07-13T15:45:10;3.60;;;1.30;;
11539;SDS011;5826;54.756;9.192;2023-07-13T15:47:41;2.33;;;1.00;;
11539;SDS011;5826;54.756;9.192;2023-07-13T15:50:11;1.42;;;0.95;;
11539;SDS011;5826;54.756;9.192;2023-07-13T15:52:41;1.80;;;1.10;;
11539;SDS011;5826;54.756;9.192;2023-07-13T15:55:11;2.83;;;1.23;;